Hauptseite
METAR-TAF:

METAR-TAF

Flughäfen :

Militärflugplatz Nancy-Ochey

Nancy, Frankreich

Breite: 48-35N, Länge: 005-58E, Höhe: 336 m

Beobachtung

Neuester Wetterbericht von vor 38 Minuten, um 08:00 UTC
Wind 10 kt aus Ost/Nordost
Temperatur 24°C
Luftfeuchtigkeit 34%
Luftdruck 1021 hPa
Sichtweite 10 km oder mehr
keine Wolken unter 1500 m und keine Kumulonimbus oder Gewitterwolken

METAR: LFSO 110800Z AUTO 06010KT CAVOK 24/07 Q1021 TEMPO 09015G25KT

Zeit: 10:38 (08:38 UTC)

Prognose

Neuester Wetterbericht von vor 4 Stunden und 10 Minuten, um 04:28 UTC
Gültige Prognose vom 11 um 03 UTC bis 12 um 03 UTC
Wind 5 kt aus Ost/Nordost
Sichtweite 10 km oder mehr
keine Wolken unter 1500 m und keine Kumulonimbus oder Gewitterwolken
Zeitweise
vom 11 um 09 UTC bis 11 um 17 UTC
Wind 15 kt aus Ost, Böen bis zu 25 kt

TAF: LFSO 110428Z 1103/1203 07005KT CAVOK TEMPO 1109/1117 09015G25KT

Wetterbeobachtungen und Prognosen von mehr als 4000 Flughäfen (METAR und TAF Bericht).

Die verfügbaren Stationen werden durch gelbe und rote Markierungen auf der Karte dargestellt.

Führen Sie die Maus auf sie, um den Namen der Station zu sehen.

Darauf klicken, um die Beobachtung von Wetterbeobachtungen und Prognosen zu sehen.

Um die Karte zu ändern : klicken Sie auf den grünen Tasten mit einem schwarzen Kreuz Zum Vergrößern, auf den grünen Button mit einem Gedankenstrich zu verkleinern, oder auf die grünen Pfeile für benachbarte Karten.


METAR-TAF: